Time;durP1;ratioP1;P1;durP2;ratioP2;P2;SDS_P1;SDS_P2;PMS_P1;PMS_P2;Temp;Humidity;BMP_temperature;BMP_pressure;BME280_temperature;BME280_humidity;BME280_pressure;Samples;Min_cycle;Max_cycle;Signal;HPM_P1;HPM_P2
2024/02/08 00:01:10;;;;;;;1.77;1.67;;;;;;;6.96;100.00;96133.22;5039550;28;20435;-79
2024/02/08 00:03:36;;;;;;;1.70;1.60;;;;;;;6.98;100.00;96131.13;5038262;28;20510;-79
2024/02/08 00:06:02;;;;;;;2.50;1.60;;;;;;;6.96;100.00;96133.22;5037548;28;20410;-79
2024/02/08 00:08:30;;;;;;;1.98;1.70;;;;;;;7.01;100.00;96149.00;5037813;28;20391;-78
2024/02/08 00:10:56;;;;;;;2.13;1.80;;;;;;;7.04;100.00;96148.50;5037358;28;20537;-78
2024/02/08 00:13:23;;;;;;;2.43;1.40;;;;;;;7.06;100.00;96145.59;5037212;28;20403;-79
2024/02/08 00:15:49;;;;;;;1.85;1.50;;;;;;;7.09;100.00;96137.97;5037568;28;20892;-79
2024/02/08 00:18:18;;;;;;;1.70;1.52;;;;;;;7.09;100.00;96135.34;5037234;28;20402;-79
2024/02/08 00:20:44;;;;;;;1.75;1.60;;;;;;;7.10;100.00;96138.75;5037367;28;20422;-79
2024/02/08 00:23:10;;;;;;;1.60;1.50;;;;;;;7.12;100.00;96132.22;5036227;28;20831;-78
2024/02/08 00:25:38;;;;;;;2.00;1.60;;;;;;;7.08;100.00;96123.22;5036729;28;20442;-79
2024/02/08 00:28:04;;;;;;;1.88;1.50;;;;;;;7.12;100.00;96120.88;5018971;28;20916;-79
2024/02/08 00:30:30;;;;;;;1.60;1.42;;;;;;;7.11;100.00;96127.19;5037029;28;20407;-79
2024/02/08 00:32:57;;;;;;;1.60;1.38;;;;;;;7.14;100.00;96121.44;5037280;28;20399;-79
2024/02/08 00:35:23;;;;;;;1.48;1.38;;;;;;;7.14;100.00;96124.06;5019086;28;20816;-79
2024/02/08 00:37:49;;;;;;;1.88;1.40;;;;;;;7.15;100.00;96122.97;5037749;28;20419;-79
2024/02/08 00:40:17;;;;;;;1.63;1.40;;;;;;;7.13;100.00;96125.91;5037901;28;20418;-79
2024/02/08 00:42:48;;;;;;;1.95;1.30;;;;;;;7.16;100.00;96127.19;5036763;28;20717;-79
2024/02/08 00:45:16;;;;;;;1.40;1.30;;;;;;;7.17;100.00;96123.53;5037274;28;20430;-79
2024/02/08 00:47:42;;;;;;;1.65;1.23;;;;;;;7.21;100.00;96124.59;5037325;28;20425;-79
2024/02/08 00:50:09;;;;;;;1.30;1.20;;;;;;;7.21;100.00;96122.75;5038509;28;20399;-79
2024/02/08 00:52:35;;;;;;;1.50;1.40;;;;;;;7.19;100.00;96129.31;5037632;28;20406;-79
2024/02/08 00:55:01;;;;;;;1.40;1.30;;;;;;;7.21;100.00;96111.44;5038060;28;20398;-79
2024/02/08 00:57:32;;;;;;;1.20;1.10;;;;;;;7.24;100.00;96124.84;5036875;28;20811;-79
2024/02/08 01:00:01;;;;;;;1.20;1.10;;;;;;;7.26;100.00;96122.75;5037370;28;20407;-79
2024/02/08 01:02:28;;;;;;;1.10;1.10;;;;;;;7.26;100.00;96121.97;5034093;28;20399;-77
2024/02/08 01:04:54;;;;;;;1.30;1.20;;;;;;;7.24;100.00;96113.53;5032903;28;20414;-77
2024/02/08 01:07:21;;;;;;;2.15;1.15;;;;;;;7.22;100.00;96108.53;5032093;28;20411;-78
2024/02/08 01:09:47;;;;;;;1.58;1.42;;;;;;;7.19;100.00;96108.28;5031398;28;20805;-77
2024/02/08 01:12:13;;;;;;;1.20;1.10;;;;;;;7.16;100.00;96096.41;5032174;28;20396;-77
2024/02/08 01:14:39;;;;;;;2.50;1.20;;;;;;;7.18;100.00;96101.41;5031793;28;20522;-77
2024/02/08 01:17:06;;;;;;;2.08;1.23;;;;;;;7.18;100.00;96119.84;5031436;28;20399;-77
2024/02/08 01:19:34;;;;;;;1.40;1.30;;;;;;;7.18;100.00;96122.47;5031226;28;20495;-77
2024/02/08 01:22:00;;;;;;;1.30;1.20;;;;;;;7.22;100.00;96113.78;5031188;28;20431;-77
2024/02/08 01:24:28;;;;;;;1.33;1.23;;;;;;;7.23;100.00;96114.56;5031601;28;20399;-76
2024/02/08 01:26:56;;;;;;;1.37;1.27;;;;;;;7.21;100.00;96121.97;5031551;28;20500;-77
2024/02/08 01:29:24;;;;;;;1.35;1.20;;;;;;;7.23;100.00;96125.09;5031441;28;20511;-77
2024/02/08 01:31:53;;;;;;;1.77;1.20;;;;;;;7.24;100.00;96124.84;5031365;28;20411;-77
2024/02/08 01:34:23;;;;;;;1.30;1.20;;;;;;;7.25;100.00;96129.06;5031266;28;20403;-76
2024/02/08 01:36:53;;;;;;;1.30;1.20;;;;;;;7.26;100.00;96121.97;5031256;28;20426;-76
2024/02/08 01:39:25;;;;;;;4.07;2.13;;;;;;;7.29;100.00;96124.09;5031269;28;20410;-77
2024/02/08 01:41:52;;;;;;;2.92;1.77;;;;;;;7.25;100.00;96110.66;5029485;28;20929;-76
2024/02/08 01:44:21;;;;;;;1.50;1.40;;;;;;;7.28;100.00;96114.59;5031052;28;20391;-77
2024/02/08 01:46:48;;;;;;;1.38;1.23;;;;;;;7.27;100.00;96113.81;5025489;28;20391;-76
2024/02/08 01:49:18;;;;;;;1.95;1.25;;;;;;;7.26;100.00;96112.22;5031007;28;20429;-77
2024/02/08 01:51:47;;;;;;;1.23;1.10;;;;;;;7.27;100.00;96115.66;5031153;28;20888;-77
2024/02/08 01:54:14;;;;;;;1.27;1.20;;;;;;;7.29;100.00;96111.69;5031278;28;20442;-77
2024/02/08 01:56:44;;;;;;;1.00;1.00;;;;;;;7.27;100.00;96113.81;5030706;28;20442;-77
2024/02/08 01:59:11;;;;;;;1.20;1.10;;;;;;;7.28;100.00;96112.78;5023336;28;20414;-77
2024/02/08 02:01:45;;;;;;;1.30;1.20;;;;;;;7.29;100.00;96121.47;5031874;28;20422;-77
2024/02/08 02:04:13;;;;;;;1.37;1.20;;;;;;;7.28;100.00;96107.50;5029787;28;20395;-77
2024/02/08 02:06:41;;;;;;;1.48;1.20;;;;;;;7.31;100.00;96101.69;5031524;28;20479;-76
2024/02/08 02:09:09;;;;;;;1.25;1.10;;;;;;;7.31;100.00;96096.44;5035642;28;20431;-77
2024/02/08 02:11:41;;;;;;;1.30;1.20;;;;;;;7.29;100.00;96101.16;5030351;28;20485;-76
2024/02/08 02:14:09;;;;;;;1.20;1.10;;;;;;;7.33;100.00;96104.09;5032534;28;20462;-78
2024/02/08 02:16:35;;;;;;;1.50;1.20;;;;;;;7.35;100.00;96101.97;5032665;28;20399;-78
2024/02/08 02:19:03;;;;;;;1.40;1.30;;;;;;;7.37;100.00;96111.19;5032749;28;20469;-78
2024/02/08 02:21:31;;;;;;;1.33;1.20;;;;;;;7.37;100.00;96108.53;5035443;28;20427;-78
2024/02/08 02:23:57;;;;;;;1.10;1.10;;;;;;;7.36;100.00;96091.19;5036680;28;20465;-78
2024/02/08 02:26:23;;;;;;;1.20;1.10;;;;;;;7.41;100.00;96100.13;5037048;28;20483;-78
2024/02/08 02:28:51;;;;;;;1.25;1.15;;;;;;;7.44;100.00;96089.09;5037345;28;20413;-78
2024/02/08 02:31:19;;;;;;;1.40;1.30;;;;;;;7.42;100.00;96084.09;5037553;28;20399;-78
2024/02/08 02:33:46;;;;;;;1.60;1.27;;;;;;;7.41;100.00;96081.72;5037234;28;20399;-78
2024/02/08 02:36:14;;;;;;;2.70;1.20;;;;;;;7.40;100.00;96070.38;5037176;28;20399;-78
2024/02/08 02:38:41;;;;;;;2.55;1.30;;;;;;;7.40;100.00;96078.28;5036825;28;20430;-78
2024/02/08 02:41:08;;;;;;;1.10;1.00;;;;;;;7.43;100.00;96077.78;5037549;28;20472;-78
2024/02/08 02:43:36;;;;;;;1.20;1.10;;;;;;;7.42;100.00;96101.72;5037572;28;20399;-78
2024/02/08 02:46:02;;;;;;;1.10;1.10;;;;;;;7.45;100.00;96088.03;5037103;28;20422;-78
2024/02/08 02:48:28;;;;;;;1.25;1.15;;;;;;;7.45;100.00;96085.38;5037122;28;20490;-78
2024/02/08 02:50:54;;;;;;;1.10;1.10;;;;;;;7.46;100.00;96085.13;5036895;28;20402;-78
2024/02/08 02:53:20;;;;;;;2.10;1.23;;;;;;;7.44;100.00;96084.63;5036998;28;20453;-78
2024/02/08 02:55:48;;;;;;;1.50;1.40;;;;;;;7.46;100.00;96084.34;5036476;28;20457;-78
2024/02/08 02:58:15;;;;;;;1.50;1.10;;;;;;;7.46;100.00;96084.34;5038556;28;20392;-78
2024/02/08 03:00:41;;;;;;;1.02;1.02;;;;;;;7.44;100.00;96073.31;5038364;28;20425;-78
2024/02/08 03:03:08;;;;;;;1.10;1.00;;;;;;;7.46;100.00;96074.59;5036421;28;20453;-78
2024/02/08 03:05:35;;;;;;;1.58;1.20;;;;;;;7.42;100.00;96067.50;5035646;28;20913;-78
2024/02/08 03:08:07;;;;;;;1.30;1.20;;;;;;;7.43;100.00;96079.63;5036662;28;20494;-78
2024/02/08 03:10:38;;;;;;;3.47;1.10;;;;;;;7.42;100.00;96063.03;5026479;28;20498;-78
2024/02/08 03:13:07;;;;;;;1.30;1.10;;;;;;;7.40;100.00;96057.22;5036346;28;20431;-78
2024/02/08 03:15:36;;;;;;;1.30;1.20;;;;;;;7.42;100.00;96068.28;5033484;28;20807;-78
2024/02/08 03:18:03;;;;;;;1.17;1.10;;;;;;;7.45;100.00;96059.84;5036405;28;20395;-78
2024/02/08 03:20:29;;;;;;;1.75;1.20;;;;;;;7.44;100.00;96073.31;5035915;28;20430;-78
2024/02/08 03:22:56;;;;;;;1.15;1.08;;;;;;;7.44;100.00;96057.50;5037085;28;20406;-78
2024/02/08 03:25:23;;;;;;;1.10;1.10;;;;;;;7.42;100.00;96060.41;5035852;28;20421;-77
2024/02/08 03:27:52;;;;;;;1.55;1.40;;;;;;;7.41;100.00;96058.81;5035840;28;20402;-78
2024/02/08 03:30:30;;;;;;;1.30;1.20;;;;;;;7.44;100.00;96049.59;5036139;28;20403;-78
2024/02/08 03:32:57;;;;;;;1.10;1.00;;;;;;;7.45;100.00;96049.31;5034558;28;20772;-78
2024/02/08 03:35:25;;;;;;;1.10;1.10;;;;;;;7.45;100.00;96066.97;5036200;28;20473;-78
2024/02/08 03:37:54;;;;;;;1.30;1.10;;;;;;;7.48;100.00;96063.81;5033435;28;20406;-78
2024/02/08 03:40:20;;;;;;;1.00;1.00;;;;;;;7.49;100.00;96065.41;5035899;28;20407;-77
2024/02/08 03:42:47;;;;;;;1.50;1.10;;;;;;;7.48;100.00;96069.88;5038982;28;20395;-78
2024/02/08 03:45:14;;;;;;;1.00;1.00;;;;;;;7.55;100.00;96066.97;5045062;28;20434;-78
2024/02/08 03:47:41;;;;;;;1.10;1.10;;;;;;;7.57;100.00;96064.88;5045251;28;20430;-78
2024/02/08 03:50:08;;;;;;;1.20;1.10;;;;;;;7.60;100.00;96075.66;5040599;28;20840;-78
2024/02/08 03:52:37;;;;;;;1.30;1.20;;;;;;;7.61;100.00;96071.19;5040560;28;20395;-78
2024/02/08 03:55:07;;;;;;;1.10;1.10;;;;;;;7.62;100.00;96068.28;5035994;28;20876;-78
2024/02/08 03:57:33;;;;;;;1.20;1.10;;;;;;;7.64;100.00;96071.44;5036747;28;20395;-78
2024/02/08 04:00:01;;;;;;;1.25;1.00;;;;;;;7.65;100.00;96078.31;5036000;28;20457;-78
2024/02/08 04:02:27;;;;;;;2.10;1.17;;;;;;;7.67;100.00;96070.13;5035684;28;20876;-78
2024/02/08 04:05:05;;;;;;;1.00;1.00;;;;;;;7.68;100.00;96063.78;5035717;28;20395;-78
2024/02/08 04:10:29;;;;;;;1.80;1.30;;;;;;;7.68;100.00;96059.31;5036480;28;20538;-78
2024/02/08 04:54:11;;;;;;;1.10;1.10;;;;;;;7.75;100.00;96045.88;5038609;28;20450;-79
2024/02/08 04:56:37;;;;;;;1.20;1.00;;;;;;;7.74;100.00;96039.06;5037817;28;20434;-78
2024/02/08 04:59:05;;;;;;;1.45;1.35;;;;;;;7.73;100.00;96038.25;5037821;28;20426;-77
2024/02/08 05:01:32;;;;;;;1.50;1.38;;;;;;;7.71;100.00;96043.00;5038582;28;20759;-79
2024/02/08 05:04:01;;;;;;;1.85;1.30;;;;;;;7.70;100.00;96038.00;5037844;28;20445;-78
2024/02/08 05:06:27;;;;;;;1.40;1.30;;;;;;;7.72;100.00;96034.06;5037454;28;20502;-77
2024/02/08 05:08:57;;;;;;;1.40;1.23;;;;;;;7.69;100.00;96031.94;5036748;28;20449;-78
2024/02/08 05:11:28;;;;;;;1.20;1.15;;;;;;;7.71;100.00;96036.94;5036080;28;20410;-78
2024/02/08 05:14:00;;;;;;;1.67;1.20;;;;;;;7.70;100.00;96022.19;5036424;28;20391;-78
2024/02/08 05:16:27;;;;;;;1.95;1.40;;;;;;;7.68;100.00;96011.13;5035286;28;20403;-78
2024/02/08 05:18:55;;;;;;;2.63;1.67;;;;;;;7.63;100.00;96019.84;5035574;28;20397;-78
2024/02/08 05:21:22;;;;;;;1.20;1.10;;;;;;;7.57;100.00;96017.47;5038617;28;20433;-78
2024/02/08 05:23:51;;;;;;;1.33;1.23;;;;;;;7.52;100.00;96020.13;5040722;28;20402;-77
2024/02/08 05:26:18;;;;;;;1.67;1.40;;;;;;;7.48;100.00;96032.22;5033658;28;20403;-78
2024/02/08 05:28:46;;;;;;;2.78;1.40;;;;;;;7.44;100.00;96024.06;5037306;28;20520;-78
2024/02/08 05:31:12;;;;;;;1.40;1.30;;;;;;;7.43;100.00;96032.22;5050907;28;20467;-77
2024/02/08 05:33:40;;;;;;;1.50;1.40;;;;;;;7.39;100.00;96038.00;5043624;28;20456;-78
2024/02/08 05:36:07;;;;;;;1.75;1.50;;;;;;;7.39;100.00;96039.84;5033904;28;20399;-78
2024/02/08 05:38:45;;;;;;;1.40;1.30;;;;;;;7.39;100.00;96030.09;5036309;28;20497;-81
2024/02/08 05:41:17;;;;;;;1.40;1.10;;;;;;;7.39;100.00;96032.75;5037477;28;20429;-79
2024/02/08 05:43:44;;;;;;;1.80;1.33;;;;;;;7.39;100.00;96021.41;5033869;28;20419;-79
2024/02/08 05:46:11;;;;;;;1.25;1.15;;;;;;;7.38;100.00;96023.25;5036027;28;20407;-79
2024/02/08 05:48:40;;;;;;;1.60;1.48;;;;;;;7.41;100.00;96026.44;5040048;28;20395;-79
2024/02/08 05:51:11;;;;;;;3.15;1.40;;;;;;;7.40;100.00;96025.63;5034838;28;20426;-78
2024/02/08 05:53:40;;;;;;;3.08;1.45;;;;;;;7.39;100.00;96016.94;5034340;28;20407;-78
2024/02/08 05:56:08;;;;;;;2.47;1.23;;;;;;;7.39;100.00;96021.41;5032006;28;20395;-79
2024/02/08 05:58:34;;;;;;;4.32;1.50;;;;;;;7.39;100.00;96024.84;5040259;28;20434;-79
2024/02/08 06:01:05;;;;;;;8.53;1.90;;;;;;;7.39;100.00;96026.69;5038360;28;20449;-79
2024/02/08 06:03:37;;;;;;;3.53;1.90;;;;;;;7.37;100.00;96024.31;5034680;28;20442;-78
2024/02/08 06:06:07;;;;;;;4.53;1.50;;;;;;;7.37;100.00;96037.47;5034584;28;20399;-79
2024/02/08 06:08:39;;;;;;;2.50;1.40;;;;;;;7.36;100.00;96028.03;5036264;28;20480;-79
2024/02/08 06:11:14;;;;;;;5.95;1.85;;;;;;;7.36;100.00;96035.13;5034424;28;20411;-79
2024/02/08 06:13:41;;;;;;;2.30;1.50;;;;;;;7.37;100.00;96036.69;5036140;28;20414;-78
2024/02/08 06:16:14;;;;;;;5.57;1.52;;;;;;;7.35;100.00;96034.34;5040960;28;20952;-79
2024/02/08 06:18:45;;;;;;;6.30;1.40;;;;;;;7.37;100.00;96039.31;5043976;28;20926;-79
2024/02/08 06:21:14;;;;;;;5.32;1.67;;;;;;;7.36;100.00;96035.91;5031946;28;21141;-79
2024/02/08 06:23:45;;;;;;;1.83;1.50;;;;;;;7.36;100.00;96046.44;5030545;28;20407;-79
2024/02/08 06:28:41;;;;;;;2.75;1.52;;;;;;;7.37;100.00;96066.44;5036543;28;20403;-79
2024/02/08 06:31:12;;;;;;;2.75;1.58;;;;;;;7.36;100.00;96051.72;5036060;28;20412;-78
2024/02/08 06:34:09;;;;;;;1.50;1.40;;;;;;;7.38;100.00;96051.44;5042873;28;20599;-79
2024/02/08 06:36:30;;;;;;;2.63;1.50;;;;;;;7.39;100.00;96053.00;5034480;28;20433;-78
2024/02/08 06:38:56;;;;;;;4.28;1.75;;;;;;;7.38;100.00;96054.06;5028946;28;20541;-79
2024/02/08 06:41:51;;;;;;;2.10;1.50;;;;;;;7.39;100.00;96056.44;5045989;28;20496;-79
2024/02/08 06:47:18;;;;;;;4.30;1.60;;;;;;;7.42;100.00;96046.44;5050831;28;20916;-79
2024/02/08 07:39:30;;;;;;;3.05;1.50;;;;;;;7.61;100.00;96043.00;5047366;28;20392;-79
2024/02/08 07:41:56;;;;;;;2.60;1.60;;;;;;;7.62;100.00;96036.69;5046355;28;20480;-79
2024/02/08 07:44:23;;;;;;;2.00;1.30;;;;;;;7.63;100.00;96040.91;5048165;28;20403;-79
2024/02/08 07:46:49;;;;;;;1.58;1.42;;;;;;;7.64;100.00;96034.59;5045234;28;20408;-79
2024/02/08 07:49:16;;;;;;;1.95;1.40;;;;;;;7.65;100.00;96032.75;5039753;28;20417;-78
2024/02/08 07:51:50;;;;;;;2.00;1.43;;;;;;;7.66;100.00;96035.13;5041983;28;20494;-78
2024/02/08 07:54:20;;;;;;;1.85;1.48;;;;;;;7.69;100.00;96031.16;5047378;28;20395;-79
2024/02/08 07:56:46;;;;;;;1.50;1.40;;;;;;;7.71;100.00;96027.19;5038233;28;20395;-78
2024/02/08 07:59:16;;;;;;;3.00;1.40;;;;;;;7.74;100.00;96031.91;5042483;28;20458;-79
2024/02/08 08:01:49;;;;;;;2.55;1.40;;;;;;;7.77;100.00;96027.97;5045101;28;20485;-80
2024/02/08 08:04:41;;;;;;;2.55;1.40;;;;;;;7.80;100.00;96024.03;5039425;28;20401;-79
2024/02/08 08:07:07;;;;;;;1.50;1.40;;;;;;;7.87;100.00;96032.44;5036329;28;20403;-79
2024/02/08 08:09:36;;;;;;;1.50;1.40;;;;;;;7.91;100.00;96033.47;5038911;28;20409;-79
2024/02/08 08:12:06;;;;;;;2.10;1.40;;;;;;;7.92;100.00;96035.84;5043410;28;20780;-79
2024/02/08 08:17:08;;;;;;;2.42;1.10;;;;;;;8.00;100.00;96031.88;5042432;28;20407;-80
2024/02/08 08:19:44;;;;;;;1.63;1.30;;;;;;;8.04;100.00;96035.56;5038388;28;20413;-82
2024/02/08 08:30:28;;;;;;;1.20;1.10;;;;;;;8.32;100.00;96028.91;5037650;28;20899;-81
2024/02/08 08:35:37;;;;;;;1.70;1.38;;;;;;;8.44;100.00;96024.91;5038124;28;20411;-81
2024/02/08 08:40:47;;;;;;;1.20;1.10;;;;;;;8.45;100.00;96029.13;5043539;28;20407;-81
2024/02/08 08:43:24;;;;;;;1.75;1.30;;;;;;;8.43;100.00;96039.16;5046391;28;20403;-82
2024/02/08 08:45:52;;;;;;;1.30;1.20;;;;;;;8.41;100.00;96032.59;5046187;28;20406;-83
2024/02/08 08:48:18;;;;;;;1.30;1.20;;;;;;;8.41;100.00;96029.94;5048974;28;20406;-82
2024/02/08 08:50:50;;;;;;;1.52;1.15;;;;;;;8.39;100.00;96022.31;5044892;28;20406;-82
2024/02/08 08:53:19;;;;;;;1.30;1.20;;;;;;;8.42;100.00;96026.25;5041046;28;20400;-83
2024/02/08 08:55:49;;;;;;;1.90;1.30;;;;;;;8.45;100.00;96021.22;5048805;28;20400;-80
2024/02/08 08:58:16;;;;;;;1.30;1.20;;;;;;;8.50;100.00;96025.66;5051154;28;20420;-80
2024/02/08 09:00:46;;;;;;;1.27;1.17;;;;;;;8.57;100.00;96031.44;5041136;28;20895;-81
2024/02/08 09:03:26;;;;;;;1.27;1.17;;;;;;;8.62;100.00;96031.44;5037631;28;20399;-81
2024/02/08 09:05:56;;;;;;;1.23;1.10;;;;;;;8.61;100.00;96023.78;5041130;28;20409;-82
2024/02/08 09:08:26;;;;;;;1.13;1.08;;;;;;;8.63;100.00;96017.19;5036353;28;20395;-81
2024/02/08 09:10:56;;;;;;;1.15;1.10;;;;;;;8.71;100.00;96016.63;5041018;28;20872;-81
2024/02/08 09:13:26;;;;;;;1.00;1.00;;;;;;;8.81;100.00;96013.91;5038090;28;20446;-78
2024/02/08 09:15:55;;;;;;;1.10;1.00;;;;;;;8.87;100.00;96015.44;5040654;28;20405;-78
2024/02/08 09:18:55;;;;;;;1.20;1.10;;;;;;;8.91;100.00;96016.50;5038373;28;20407;-81
2024/02/08 09:21:10;;;;;;;2.40;1.30;;;;;;;8.95;100.00;96011.44;5039882;28;20459;-80
2024/02/08 09:23:38;;;;;;;1.37;1.00;;;;;;;8.97;100.00;96016.44;5049591;28;20424;-79
2024/02/08 09:26:05;;;;;;;1.30;1.02;;;;;;;9.01;100.00;96005.09;5048274;28;20395;-80
2024/02/08 09:28:42;;;;;;;1.30;1.20;;;;;;;9.04;100.00;96009.00;5043036;28;20424;-79
2024/02/08 09:31:16;;;;;;;1.15;1.05;;;;;;;9.01;100.00;96007.72;5045197;28;20416;-80
2024/02/08 09:34:00;;;;;;;2.00;1.20;;;;;;;9.04;100.00;96007.16;5045419;28;20454;-78
2024/02/08 09:36:29;;;;;;;1.20;1.10;;;;;;;9.10;100.00;96000.00;5047208;28;20396;-79
2024/02/08 09:38:57;;;;;;;2.10;1.10;;;;;;;9.16;100.00;96006.84;5045138;28;20397;-79
2024/02/08 09:41:26;;;;;;;2.50;1.20;;;;;;;9.21;100.00;96004.94;5046417;28;20447;-78
2024/02/08 09:43:56;;;;;;;1.60;1.10;;;;;;;9.31;100.00;96009.34;5042911;28;20409;-78
2024/02/08 09:49:01;;;;;;;1.10;1.05;;;;;;;9.47;100.00;96005.50;5043923;28;20424;-78
2024/02/08 09:51:35;;;;;;;1.20;1.08;;;;;;;9.55;100.00;96009.41;5043203;28;20486;-79
2024/02/08 09:54:26;;;;;;;1.50;1.10;;;;;;;9.56;100.00;96001.19;5047970;28;20748;-78
2024/02/08 09:57:01;;;;;;;1.88;1.00;;;;;;;9.54;100.00;96007.84;5022907;28;20399;-78
2024/02/08 09:59:58;;;;;;;0.95;0.95;;;;;;;9.55;100.00;95998.84;5046616;28;20449;-79
2024/02/08 10:02:23;;;;;;;1.73;1.20;;;;;;;9.53;100.00;96006.28;5041255;28;20768;-80
2024/02/08 10:04:56;;;;;;;1.60;1.27;;;;;;;9.55;100.00;95998.84;5044503;28;20426;-78
2024/02/08 10:07:34;;;;;;;1.20;1.10;;;;;;;9.62;100.00;96009.88;5040815;28;20402;-78
2024/02/08 10:10:14;;;;;;;1.08;1.00;;;;;;;9.61;100.00;96006.47;5044308;28;20413;-79
2024/02/08 10:12:53;;;;;;;2.35;1.10;;;;;;;9.58;100.00;95999.06;5045711;28;20411;-78
2024/02/08 10:15:26;;;;;;;0.90;0.90;;;;;;;9.57;100.00;95996.72;5039448;28;20399;-79
2024/02/08 10:18:02;;;;;;;1.00;1.00;;;;;;;9.63;100.00;95985.81;5048176;28;20409;-80
2024/02/08 10:20:45;;;;;;;1.08;0.93;;;;;;;9.68;100.00;95988.44;5056611;28;20536;-81
2024/02/08 10:23:33;;;;;;;1.00;1.00;;;;;;;9.71;100.00;95989.72;5039974;28;20418;-81
2024/02/08 10:26:19;;;;;;;1.40;1.10;;;;;;;9.73;100.00;95987.59;5048356;28;20431;-80
2024/02/08 10:28:47;;;;;;;2.00;1.10;;;;;;;9.78;100.00;95984.09;5042978;28;20395;-80
2024/02/08 10:31:22;;;;;;;1.30;1.10;;;;;;;9.74;100.00;95983.09;5036954;28;20406;-78
2024/02/08 10:33:49;;;;;;;1.17;1.00;;;;;;;9.82;100.00;95971.91;5037005;28;20402;-79
2024/02/08 10:36:18;;;;;;;1.20;0.93;;;;;;;9.84;100.00;95967.94;5036533;28;20844;-79
2024/02/08 10:38:56;;;;;;;1.10;1.00;;;;;;;9.79;100.00;95965.31;5039597;28;20399;-79
2024/02/08 10:41:35;;;;;;;1.00;1.00;;;;;;;9.76;100.00;95965.91;5042988;28;20770;-79
2024/02/08 10:44:05;;;;;;;1.30;1.10;;;;;;;9.61;100.00;95961.56;5048563;28;20406;-81
2024/02/08 10:46:32;;;;;;;1.15;1.00;;;;;;;9.54;100.00;95963.72;5051591;28;20409;-82
2024/02/08 10:49:00;;;;;;;0.93;0.93;;;;;;;9.47;100.00;95957.97;5040377;28;20414;-78
2024/02/08 10:51:27;;;;;;;1.20;1.10;;;;;;;9.40;100.00;95962.78;5040279;28;20415;-81
2024/02/08 10:54:14;;;;;;;1.27;1.17;;;;;;;9.36;100.00;95960.97;5048771;28;20396;-80
2024/02/08 10:56:48;;;;;;;2.40;1.17;;;;;;;9.33;100.00;95963.09;5052389;28;20403;-80
2024/02/08 10:59:23;;;;;;;3.80;1.30;;;;;;;9.32;100.00;95961.53;5046010;28;20395;-80
2024/02/08 11:04:28;;;;;;;1.30;1.20;;;;;;;9.47;100.00;95938.72;5042067;28;20392;-80
2024/02/08 11:07:16;;;;;;;1.10;1.00;;;;;;;9.63;100.00;95940.13;5055182;28;20446;-79
2024/02/08 11:09:46;;;;;;;0.90;0.90;;;;;;;9.79;100.00;95933.59;5052198;28;20405;-80
2024/02/08 11:12:18;;;;;;;0.90;0.90;;;;;;;9.99;100.00;95932.59;5059912;28;20400;-78
2024/02/08 11:14:53;;;;;;;1.15;1.05;;;;;;;10.21;100.00;95938.19;5046302;28;20397;-80
2024/02/08 11:17:23;;;;;;;1.10;1.00;;;;;;;10.30;100.00;95933.06;5044832;28;20402;-81
2024/02/08 11:20:03;;;;;;;0.88;0.80;;;;;;;10.32;100.00;95915.03;5029458;28;20433;-78
2024/02/08 11:22:35;;;;;;;3.15;0.98;;;;;;;10.44;100.00;95915.41;5046648;28;20471;-78
2024/02/08 11:25:23;;;;;;;3.15;1.17;;;;;;;10.54;100.00;95909.16;5048087;28;20401;-78
2024/02/08 11:27:52;;;;;;;0.90;0.90;;;;;;;10.62;100.00;95901.38;5050984;28;20445;-78
2024/02/08 11:30:32;;;;;;;0.98;0.95;;;;;;;10.74;100.00;95899.09;5048467;28;20430;-79
2024/02/08 11:33:03;;;;;;;1.10;0.83;;;;;;;10.90;100.00;95890.91;5047908;28;20474;-78
2024/02/08 11:35:31;;;;;;;2.00;1.10;;;;;;;10.96;100.00;95887.09;5048715;28;20426;-78
2024/02/08 11:38:09;;;;;;;0.97;0.90;;;;;;;11.02;100.00;95883.28;5046875;28;20398;-78
2024/02/08 11:40:36;;;;;;;1.00;0.90;;;;;;;11.10;100.00;95877.34;5048932;28;20434;-78
2024/02/08 11:43:06;;;;;;;1.50;0.90;;;;;;;11.14;100.00;95883.59;5051724;28;20514;-78
2024/02/08 11:45:35;;;;;;;2.13;0.90;;;;;;;11.07;100.00;95864.66;5049888;28;20394;-78
2024/02/08 11:48:04;;;;;;;1.10;1.00;;;;;;;11.03;100.00;95872.41;5052776;28;20414;-78
2024/02/08 11:50:36;;;;;;;1.10;0.85;;;;;;;11.05;100.00;95858.91;5054731;28;20765;-78
2024/02/08 11:53:04;;;;;;;0.98;0.80;;;;;;;11.05;100.00;95859.66;5061513;28;20390;-80
2024/02/08 11:55:32;;;;;;;1.50;1.00;;;;;;;11.10;100.00;95856.94;5056175;28;20413;-79
2024/02/08 11:58:03;;;;;;;1.08;0.85;;;;;;;11.13;100.00;95856.34;5060283;28;20488;-79
2024/02/08 12:00:30;;;;;;;1.70;0.93;;;;;;;11.19;100.00;95849.91;5060407;28;20490;-79
2024/02/08 12:02:57;;;;;;;1.00;0.90;;;;;;;11.20;100.00;95846.16;5052577;28;20436;-79
2024/02/08 12:05:24;;;;;;;4.70;1.30;;;;;;;11.13;100.00;95842.31;5052771;28;20799;-79
2024/02/08 12:07:50;;;;;;;4.20;1.30;;;;;;;11.06;100.00;95848.00;5050617;28;20412;-81
2024/02/08 12:10:17;;;;;;;2.00;1.50;;;;;;;10.98;100.00;95843.34;5053664;28;20469;-79
2024/02/08 12:12:44;;;;;;;4.50;1.20;;;;;;;10.84;100.00;95824.00;5047065;28;20404;-78
2024/02/08 12:15:12;;;;;;;4.47;1.45;;;;;;;10.80;100.00;95844.22;5038557;28;20442;-77
2024/02/08 12:17:40;;;;;;;2.58;1.48;;;;;;;10.76;100.00;95811.44;5033278;28;20403;-81
2024/02/08 12:20:09;;;;;;;3.40;1.33;;;;;;;10.77;100.00;95819.09;5044330;28;20398;-81
2024/02/08 12:22:35;;;;;;;4.97;1.33;;;;;;;10.86;100.00;95820.00;5043181;28;20822;-79
2024/02/08 12:25:07;;;;;;;4.65;1.30;;;;;;;11.02;100.00;95825.03;5042119;28;20432;-80
2024/02/08 12:27:35;;;;;;;1.63;1.10;;;;;;;11.02;100.00;95831.13;5029769;28;20401;-80
2024/02/08 12:30:03;;;;;;;3.40;1.20;;;;;;;11.11;100.00;95823.31;5019483;28;20793;-80
2024/02/08 12:32:33;;;;;;;5.20;1.30;;;;;;;11.09;100.00;95830.75;5032101;28;20582;-82
2024/02/08 12:35:12;;;;;;;3.15;1.20;;;;;;;11.01;100.00;95829.56;5024080;28;20395;-81
2024/02/08 12:37:41;;;;;;;6.97;1.70;;;;;;;11.01;100.00;95834.06;5049599;28;20414;-78
2024/02/08 12:40:12;;;;;;;3.80;1.40;;;;;;;10.99;100.00;95823.75;5039175;28;20486;-79
2024/02/08 12:42:39;;;;;;;5.55;1.45;;;;;;;11.05;100.00;95819.19;5046074;28;20513;-80
2024/02/08 12:45:10;;;;;;;5.03;1.55;;;;;;;11.11;100.00;95813.50;5044398;28;20548;-80
2024/02/08 12:47:39;;;;;;;1.85;1.27;;;;;;;11.32;100.00;95823.72;5047080;28;20429;-80
2024/02/08 12:50:08;;;;;;;5.15;2.17;;;;;;;11.33;100.00;95817.34;5058906;28;20471;-81
2024/02/08 12:52:35;;;;;;;3.40;1.40;;;;;;;11.44;100.00;95822.13;5056518;28;20398;-82
2024/02/08 12:55:01;;;;;;;4.75;1.40;;;;;;;11.52;100.00;95823.31;5044528;28;20422;-79
2024/02/08 12:57:27;;;;;;;2.22;1.17;;;;;;;11.54;100.00;95821.94;5043642;28;20865;-79
2024/02/08 13:00:02;;;;;;;3.22;1.67;;;;;;;11.51;100.00;95827.81;5038705;28;20406;-80
2024/02/08 13:02:33;;;;;;;3.50;1.60;;;;;;;11.49;100.00;95826.56;5048301;28;20896;-78
2024/02/08 13:05:03;;;;;;;3.28;1.30;;;;;;;11.52;100.00;95821.44;5038037;28;20487;-80
2024/02/08 13:07:29;;;;;;;5.25;1.45;;;;;;;11.52;100.00;95818.81;5051301;28;20399;-79
2024/02/08 13:10:03;;;;;;;4.53;1.50;;;;;;;11.61;100.00;95806.44;5038911;28;20507;-79
2024/02/08 13:12:29;;;;;;;10.80;2.40;;;;;;;11.64;100.00;95799.78;5049817;28;20400;-79
2024/02/08 13:15:02;;;;;;;6.93;2.05;;;;;;;11.86;100.00;95797.22;5048717;28;20404;-79
2024/02/08 13:17:32;;;;;;;6.53;1.93;;;;;;;11.93;100.00;95794.16;5043695;28;20482;-78
2024/02/08 13:20:11;;;;;;;7.80;2.10;;;;;;;12.04;100.00;95798.16;5045871;28;20432;-80
2024/02/08 13:22:38;;;;;;;9.90;2.47;;;;;;;11.97;100.00;95785.28;5041547;28;20415;-79
2024/02/08 13:25:15;;;;;;;6.00;1.95;;;;;;;11.99;100.00;95782.34;5042278;28;20417;-79
2024/02/08 13:27:44;;;;;;;7.75;2.10;;;;;;;11.99;100.00;95785.78;5044405;28;20501;-79
2024/02/08 13:30:17;;;;;;;8.00;1.95;;;;;;;11.98;100.00;95778.13;5040004;28;20766;-80
2024/02/08 13:32:49;;;;;;;8.80;2.70;;;;;;;11.86;100.00;95773.34;5027944;28;20446;-79
2024/02/08 13:35:19;;;;;;;13.90;3.28;;;;;;;11.69;100.00;95757.25;5039798;28;20415;-79
2024/02/08 13:37:47;;;;;;;13.77;3.00;;;;;;;11.57;100.00;95757.78;5042588;28;20411;-81
2024/02/08 13:40:13;;;;;;;9.80;2.65;;;;;;;11.54;100.00;95763.66;5044178;28;20407;-79
2024/02/08 13:42:40;;;;;;;7.35;2.30;;;;;;;11.60;100.00;95766.97;5045467;28;20530;-79
2024/02/08 13:45:07;;;;;;;14.23;3.15;;;;;;;11.58;100.00;95767.25;5046421;28;20411;-79